sensor_id;sensor_type;location;lat;lon;timestamp;temperature;humidity
79571;DHT22;69034;49.444;7.758;2023-08-06T00:02:09;19.50;58.90
79571;DHT22;69034;49.444;7.758;2023-08-06T00:06:10;19.50;59.20
79571;DHT22;69034;49.444;7.758;2023-08-06T00:10:11;19.40;59.20
79571;DHT22;69034;49.444;7.758;2023-08-06T00:14:12;19.40;59.20
79571;DHT22;69034;49.444;7.758;2023-08-06T00:18:15;19.40;59.20
79571;DHT22;69034;49.444;7.758;2023-08-06T00:22:16;19.40;59.20
79571;DHT22;69034;49.444;7.758;2023-08-06T00:26:17;19.40;59.20
79571;DHT22;69034;49.444;7.758;2023-08-06T00:30:18;19.40;59.30
79571;DHT22;69034;49.444;7.758;2023-08-06T00:34:18;19.50;59.30
79571;DHT22;69034;49.444;7.758;2023-08-06T00:38:19;19.60;59.20
79571;DHT22;69034;49.444;7.758;2023-08-06T00:42:19;19.70;59.10
79571;DHT22;69034;49.444;7.758;2023-08-06T00:46:21;19.80;58.90
79571;DHT22;69034;49.444;7.758;2023-08-06T00:50:21;19.90;58.80
79571;DHT22;69034;49.444;7.758;2023-08-06T00:54:23;19.90;58.70
79571;DHT22;69034;49.444;7.758;2023-08-06T00:58:26;20.00;58.60
79571;DHT22;69034;49.444;7.758;2023-08-06T01:02:26;20.00;58.60
79571;DHT22;69034;49.444;7.758;2023-08-06T01:06:39;20.00;58.70
79571;DHT22;69034;49.444;7.758;2023-08-06T01:11:05;19.90;58.90
79571;DHT22;69034;49.444;7.758;2023-08-06T01:19:20;19.90;59.10
79571;DHT22;69034;49.444;7.758;2023-08-06T01:23:21;19.80;59.30
79571;DHT22;69034;49.444;7.758;2023-08-06T01:27:37;19.70;59.50
79571;DHT22;69034;49.444;7.758;2023-08-06T01:31:40;19.70;59.70
79571;DHT22;69034;49.444;7.758;2023-08-06T01:35:42;19.70;59.70
79571;DHT22;69034;49.444;7.758;2023-08-06T01:39:43;19.70;59.80
79571;DHT22;69034;49.444;7.758;2023-08-06T01:43:44;19.70;59.80
79571;DHT22;69034;49.444;7.758;2023-08-06T01:47:44;19.70;59.70
79571;DHT22;69034;49.444;7.758;2023-08-06T01:51:45;19.70;59.80
79571;DHT22;69034;49.444;7.758;2023-08-06T01:55:49;19.60;60.00
79571;DHT22;69034;49.444;7.758;2023-08-06T01:59:50;19.50;60.10
79571;DHT22;69034;49.444;7.758;2023-08-06T02:03:51;19.40;60.10
79571;DHT22;69034;49.444;7.758;2023-08-06T02:07:51;19.40;60.20
79571;DHT22;69034;49.444;7.758;2023-08-06T02:11:52;19.30;60.40
79571;DHT22;69034;49.444;7.758;2023-08-06T02:15:52;19.30;60.30
79571;DHT22;69034;49.444;7.758;2023-08-06T02:19:56;19.20;60.50
79571;DHT22;69034;49.444;7.758;2023-08-06T02:23:59;19.20;60.50
79571;DHT22;69034;49.444;7.758;2023-08-06T02:28:00;19.10;60.70
79571;DHT22;69034;49.444;7.758;2023-08-06T02:32:00;19.10;60.80
79571;DHT22;69034;49.444;7.758;2023-08-06T02:36:03;19.00;61.20
79571;DHT22;69034;49.444;7.758;2023-08-06T02:40:05;18.90;61.30
79571;DHT22;69034;49.444;7.758;2023-08-06T02:44:06;18.90;61.60
79571;DHT22;69034;49.444;7.758;2023-08-06T02:48:07;18.80;62.20
79571;DHT22;69034;49.444;7.758;2023-08-06T02:52:07;18.80;62.00
79571;DHT22;69034;49.444;7.758;2023-08-06T02:56:08;18.70;62.40
79571;DHT22;69034;49.444;7.758;2023-08-06T03:00:09;18.70;62.40
79571;DHT22;69034;49.444;7.758;2023-08-06T03:04:12;18.70;62.50
79571;DHT22;69034;49.444;7.758;2023-08-06T03:08:14;18.60;62.80
79571;DHT22;69034;49.444;7.758;2023-08-06T03:12:14;18.50;62.90
79571;DHT22;69034;49.444;7.758;2023-08-06T03:16:15;18.50;63.10
79571;DHT22;69034;49.444;7.758;2023-08-06T03:20:16;18.40;63.20
79571;DHT22;69034;49.444;7.758;2023-08-06T03:24:16;18.40;63.30
79571;DHT22;69034;49.444;7.758;2023-08-06T03:28:17;18.30;63.30
79571;DHT22;69034;49.444;7.758;2023-08-06T03:32:18;18.30;63.50
79571;DHT22;69034;49.444;7.758;2023-08-06T03:36:19;18.30;63.70
79571;DHT22;69034;49.444;7.758;2023-08-06T03:40:22;18.30;63.60
79571;DHT22;69034;49.444;7.758;2023-08-06T03:44:22;18.20;63.70
79571;DHT22;69034;49.444;7.758;2023-08-06T03:48:23;18.20;64.00
79571;DHT22;69034;49.444;7.758;2023-08-06T03:52:24;18.30;64.10
79571;DHT22;69034;49.444;7.758;2023-08-06T03:56:24;18.50;64.00
79571;DHT22;69034;49.444;7.758;2023-08-06T04:00:25;18.50;64.00
79571;DHT22;69034;49.444;7.758;2023-08-06T04:04:26;18.50;64.10
79571;DHT22;69034;49.444;7.758;2023-08-06T04:08:28;18.60;63.90
79571;DHT22;69034;49.444;7.758;2023-08-06T04:12:29;18.60;64.00
79571;DHT22;69034;49.444;7.758;2023-08-06T04:16:30;18.70;64.00
79571;DHT22;69034;49.444;7.758;2023-08-06T04:20:31;18.70;64.00
79571;DHT22;69034;49.444;7.758;2023-08-06T04:24:31;18.70;63.90
79571;DHT22;69034;49.444;7.758;2023-08-06T04:28:32;18.70;63.90
79571;DHT22;69034;49.444;7.758;2023-08-06T04:32:33;18.70;63.90
79571;DHT22;69034;49.444;7.758;2023-08-06T04:36:33;18.70;63.80
79571;DHT22;69034;49.444;7.758;2023-08-06T04:40:35;18.80;63.70
79571;DHT22;69034;49.444;7.758;2023-08-06T04:44:36;18.80;63.60
79571;DHT22;69034;49.444;7.758;2023-08-06T04:48:37;18.80;63.60
79571;DHT22;69034;49.444;7.758;2023-08-06T04:52:37;18.80;63.70
79571;DHT22;69034;49.444;7.758;2023-08-06T04:56:38;18.80;63.60
79571;DHT22;69034;49.444;7.758;2023-08-06T05:00:39;18.80;63.50
79571;DHT22;69034;49.444;7.758;2023-08-06T05:04:40;18.90;63.40
79571;DHT22;69034;49.444;7.758;2023-08-06T05:08:41;18.90;63.30
79571;DHT22;69034;49.444;7.758;2023-08-06T05:12:42;18.90;63.50
79571;DHT22;69034;49.444;7.758;2023-08-06T05:16:42;18.80;63.70
79571;DHT22;69034;49.444;7.758;2023-08-06T05:20:44;18.70;63.90
79571;DHT22;69034;49.444;7.758;2023-08-06T05:24:46;18.60;64.00
79571;DHT22;69034;49.444;7.758;2023-08-06T05:28:47;18.60;64.00
79571;DHT22;69034;49.444;7.758;2023-08-06T05:32:47;18.70;64.00
79571;DHT22;69034;49.444;7.758;2023-08-06T05:36:48;18.80;63.80
79571;DHT22;69034;49.444;7.758;2023-08-06T05:40:49;18.80;63.90
79571;DHT22;69034;49.444;7.758;2023-08-06T05:44:49;18.90;63.70
79571;DHT22;69034;49.444;7.758;2023-08-06T05:48:50;19.00;63.60
79571;DHT22;69034;49.444;7.758;2023-08-06T05:52:51;19.00;63.70
79571;DHT22;69034;49.444;7.758;2023-08-06T05:56:52;19.00;63.70
79571;DHT22;69034;49.444;7.758;2023-08-06T06:00:53;19.10;63.50
79571;DHT22;69034;49.444;7.758;2023-08-06T06:04:53;19.40;63.00
79571;DHT22;69034;49.444;7.758;2023-08-06T06:08:54;19.60;62.70
79571;DHT22;69034;49.444;7.758;2023-08-06T06:12:54;19.80;62.50
79571;DHT22;69034;49.444;7.758;2023-08-06T06:16:55;19.80;62.40
79571;DHT22;69034;49.444;7.758;2023-08-06T06:20:56;19.90;62.40
79571;DHT22;69034;49.444;7.758;2023-08-06T06:24:56;19.90;62.40
79571;DHT22;69034;49.444;7.758;2023-08-06T06:28:57;19.90;62.30
79571;DHT22;69034;49.444;7.758;2023-08-06T06:32:58;20.20;61.70
79571;DHT22;69034;49.444;7.758;2023-08-06T06:37:00;20.50;61.40
79571;DHT22;69034;49.444;7.758;2023-08-06T06:41:00;20.50;61.40
79571;DHT22;69034;49.444;7.758;2023-08-06T06:45:03;20.40;61.50
79571;DHT22;69034;49.444;7.758;2023-08-06T06:49:04;20.30;61.70
79571;DHT22;69034;49.444;7.758;2023-08-06T06:53:05;20.30;61.80
79571;DHT22;69034;49.444;7.758;2023-08-06T06:57:05;20.50;61.20
79571;DHT22;69034;49.444;7.758;2023-08-06T07:01:07;20.90;60.60
79571;DHT22;69034;49.444;7.758;2023-08-06T07:05:08;21.60;59.60
79571;DHT22;69034;49.444;7.758;2023-08-06T07:09:10;22.10;58.80
79571;DHT22;69034;49.444;7.758;2023-08-06T07:13:11;22.40;58.40
79571;DHT22;69034;49.444;7.758;2023-08-06T07:17:11;22.90;57.40
79571;DHT22;69034;49.444;7.758;2023-08-06T07:21:12;23.40;56.60
79571;DHT22;69034;49.444;7.758;2023-08-06T07:25:13;23.40;56.40
79571;DHT22;69034;49.444;7.758;2023-08-06T07:29:14;23.10;56.80
79571;DHT22;69034;49.444;7.758;2023-08-06T07:33:20;23.00;56.90
79571;DHT22;69034;49.444;7.758;2023-08-06T07:37:20;22.90;56.80
79571;DHT22;69034;49.444;7.758;2023-08-06T07:41:23;23.00;56.60
79571;DHT22;69034;49.444;7.758;2023-08-06T07:45:24;23.30;55.90
79571;DHT22;69034;49.444;7.758;2023-08-06T07:49:25;23.70;55.10
79571;DHT22;69034;49.444;7.758;2023-08-06T07:53:25;23.60;55.20
79571;DHT22;69034;49.444;7.758;2023-08-06T07:57:32;23.60;55.10
79571;DHT22;69034;49.444;7.758;2023-08-06T08:01:34;23.70;54.80
79571;DHT22;69034;49.444;7.758;2023-08-06T08:05:35;24.20;53.80
79571;DHT22;69034;49.444;7.758;2023-08-06T08:09:36;24.20;54.00
79571;DHT22;69034;49.444;7.758;2023-08-06T08:13:36;24.50;53.50
79571;DHT22;69034;49.444;7.758;2023-08-06T08:17:37;24.80;52.80
79571;DHT22;69034;49.444;7.758;2023-08-06T08:21:38;24.90;52.60
79571;DHT22;69034;49.444;7.758;2023-08-06T08:25:43;25.30;51.90
79571;DHT22;69034;49.444;7.758;2023-08-06T08:29:46;25.70;51.00
79571;DHT22;69034;49.444;7.758;2023-08-06T08:33:47;25.70;50.60
79571;DHT22;69034;49.444;7.758;2023-08-06T08:37:47;25.40;50.90
79571;DHT22;69034;49.444;7.758;2023-08-06T08:41:49;24.90;51.10
79571;DHT22;69034;49.444;7.758;2023-08-06T08:45:51;24.40;51.80
79571;DHT22;69034;49.444;7.758;2023-08-06T08:49:55;23.90;52.30
79571;DHT22;69034;49.444;7.758;2023-08-06T08:53:56;23.30;53.10
79571;DHT22;69034;49.444;7.758;2023-08-06T08:57:57;23.00;53.70
79571;DHT22;69034;49.444;7.758;2023-08-06T09:02:01;22.70;54.60
79571;DHT22;69034;49.444;7.758;2023-08-06T09:06:02;22.50;54.90
79571;DHT22;69034;49.444;7.758;2023-08-06T09:10:05;22.40;55.20
79571;DHT22;69034;49.444;7.758;2023-08-06T09:14:08;22.60;54.90
79571;DHT22;69034;49.444;7.758;2023-08-06T09:18:11;23.30;54.40
79571;DHT22;69034;49.444;7.758;2023-08-06T09:22:12;23.50;54.10
79571;DHT22;69034;49.444;7.758;2023-08-06T09:26:14;23.30;54.40
79571;DHT22;69034;49.444;7.758;2023-08-06T09:30:35;23.30;54.30
79571;DHT22;69034;49.444;7.758;2023-08-06T09:34:35;23.20;54.40
79571;DHT22;69034;49.444;7.758;2023-08-06T09:38:40;23.10;54.60
79571;DHT22;69034;49.444;7.758;2023-08-06T09:42:42;22.80;54.90
79571;DHT22;69034;49.444;7.758;2023-08-06T09:50:50;22.80;55.00
79571;DHT22;69034;49.444;7.758;2023-08-06T09:54:52;22.60;55.10
79571;DHT22;69034;49.444;7.758;2023-08-06T09:58:54;22.50;55.50
79571;DHT22;69034;49.444;7.758;2023-08-06T10:02:59;22.40;56.10
79571;DHT22;69034;49.444;7.758;2023-08-06T10:07:01;22.70;56.10
79571;DHT22;69034;49.444;7.758;2023-08-06T10:11:03;22.70;56.10
79571;DHT22;69034;49.444;7.758;2023-08-06T10:15:10;22.90;55.70
79571;DHT22;69034;49.444;7.758;2023-08-06T10:19:13;22.90;55.60
79571;DHT22;69034;49.444;7.758;2023-08-06T10:23:15;22.80;55.70
79571;DHT22;69034;49.444;7.758;2023-08-06T10:27:30;22.90;55.30
79571;DHT22;69034;49.444;7.758;2023-08-06T10:31:53;23.30;54.60
79571;DHT22;69034;49.444;7.758;2023-08-06T10:36:01;23.40;54.10
79571;DHT22;69034;49.444;7.758;2023-08-06T10:40:03;23.40;54.30
79571;DHT22;69034;49.444;7.758;2023-08-06T10:44:10;23.50;54.60
79571;DHT22;69034;49.444;7.758;2023-08-06T10:48:11;24.10;53.80
79571;DHT22;69034;49.444;7.758;2023-08-06T10:52:11;24.80;52.80
79571;DHT22;69034;49.444;7.758;2023-08-06T11:00:21;25.40;51.30
79571;DHT22;69034;49.444;7.758;2023-08-06T11:04:23;25.60;50.80
79571;DHT22;69034;49.444;7.758;2023-08-06T11:08:29;25.80;50.10
79571;DHT22;69034;49.444;7.758;2023-08-06T11:12:34;26.00;49.60
79571;DHT22;69034;49.444;7.758;2023-08-06T11:16:36;25.90;49.50
79571;DHT22;69034;49.444;7.758;2023-08-06T11:20:37;25.50;50.00
79571;DHT22;69034;49.444;7.758;2023-08-06T11:24:38;25.50;49.70
79571;DHT22;69034;49.444;7.758;2023-08-06T11:28:40;25.40;49.30
79571;DHT22;69034;49.444;7.758;2023-08-06T11:32:45;25.20;49.20
79571;DHT22;69034;49.444;7.758;2023-08-06T11:36:46;25.20;49.10
79571;DHT22;69034;49.444;7.758;2023-08-06T11:40:47;25.20;49.10
79571;DHT22;69034;49.444;7.758;2023-08-06T11:44:48;25.10;49.30
79571;DHT22;69034;49.444;7.758;2023-08-06T11:48:52;24.70;49.80
79571;DHT22;69034;49.444;7.758;2023-08-06T11:52:58;24.60;49.90
79571;DHT22;69034;49.444;7.758;2023-08-06T11:56:59;24.90;49.50
79571;DHT22;69034;49.444;7.758;2023-08-06T12:01:02;25.30;49.10
79571;DHT22;69034;49.444;7.758;2023-08-06T12:05:05;25.50;49.00
79571;DHT22;69034;49.444;7.758;2023-08-06T12:09:10;25.60;48.70
79571;DHT22;69034;49.444;7.758;2023-08-06T12:13:11;25.60;49.00
79571;DHT22;69034;49.444;7.758;2023-08-06T12:17:14;25.60;49.00
79571;DHT22;69034;49.444;7.758;2023-08-06T12:21:18;25.60;49.20
79571;DHT22;69034;49.444;7.758;2023-08-06T12:25:18;25.40;49.30
79571;DHT22;69034;49.444;7.758;2023-08-06T12:29:21;25.10;49.60
79571;DHT22;69034;49.444;7.758;2023-08-06T12:33:21;24.90;49.70
79571;DHT22;69034;49.444;7.758;2023-08-06T12:37:40;24.60;50.10
79571;DHT22;69034;49.444;7.758;2023-08-06T12:41:53;24.50;50.10
79571;DHT22;69034;49.444;7.758;2023-08-06T12:46:04;24.80;49.30
79571;DHT22;69034;49.444;7.758;2023-08-06T12:50:08;25.20;48.30
79571;DHT22;69034;49.444;7.758;2023-08-06T12:54:13;25.50;47.60
79571;DHT22;69034;49.444;7.758;2023-08-06T12:58:14;25.50;47.30
79571;DHT22;69034;49.444;7.758;2023-08-06T13:02:20;25.60;47.30
79571;DHT22;69034;49.444;7.758;2023-08-06T13:06:21;25.80;47.00
79571;DHT22;69034;49.444;7.758;2023-08-06T13:10:24;26.00;47.00
79571;DHT22;69034;49.444;7.758;2023-08-06T13:19:58;26.60;45.80
79571;DHT22;69034;49.444;7.758;2023-08-06T13:24:03;30.20;42.20
79571;DHT22;69034;49.444;7.758;2023-08-06T13:28:04;29.70;41.60
79571;DHT22;69034;49.444;7.758;2023-08-06T13:32:05;28.80;41.90
79571;DHT22;69034;49.444;7.758;2023-08-06T13:36:06;29.10;41.50
79571;DHT22;69034;49.444;7.758;2023-08-06T13:40:07;28.70;41.80
79571;DHT22;69034;49.444;7.758;2023-08-06T13:44:08;28.30;41.90
79571;DHT22;69034;49.444;7.758;2023-08-06T13:48:10;28.20;41.90
79571;DHT22;69034;49.444;7.758;2023-08-06T13:52:10;27.50;43.00
79571;DHT22;69034;49.444;7.758;2023-08-06T13:56:14;26.60;44.50
79571;DHT22;69034;49.444;7.758;2023-08-06T14:00:18;26.20;44.90
79571;DHT22;69034;49.444;7.758;2023-08-06T14:04:19;27.10;43.80
79571;DHT22;69034;49.444;7.758;2023-08-06T14:08:22;26.70;44.80
79571;DHT22;69034;49.444;7.758;2023-08-06T14:12:24;26.20;45.80
79571;DHT22;69034;49.444;7.758;2023-08-06T14:16:26;25.90;46.40
79571;DHT22;69034;49.444;7.758;2023-08-06T14:20:26;27.00;44.90
79571;DHT22;69034;49.444;7.758;2023-08-06T14:24:27;27.40;44.50
79571;DHT22;69034;49.444;7.758;2023-08-06T14:28:27;27.60;44.10
79571;DHT22;69034;49.444;7.758;2023-08-06T14:32:29;27.80;43.80
79571;DHT22;69034;49.444;7.758;2023-08-06T14:36:29;28.50;42.80
79571;DHT22;69034;49.444;7.758;2023-08-06T14:40:30;28.50;42.60
79571;DHT22;69034;49.444;7.758;2023-08-06T14:44:35;27.80;43.30
79571;DHT22;69034;49.444;7.758;2023-08-06T14:48:36;26.60;44.80
79571;DHT22;69034;49.444;7.758;2023-08-06T14:52:38;25.80;46.10
79571;DHT22;69034;49.444;7.758;2023-08-06T14:56:39;25.30;46.70
79571;DHT22;69034;49.444;7.758;2023-08-06T15:00:40;25.10;46.90
79571;DHT22;69034;49.444;7.758;2023-08-06T15:04:40;24.90;47.30
79571;DHT22;69034;49.444;7.758;2023-08-06T15:08:41;24.40;48.10
79571;DHT22;69034;49.444;7.758;2023-08-06T15:12:44;24.30;48.20
79571;DHT22;69034;49.444;7.758;2023-08-06T15:16:47;24.50;48.00
79571;DHT22;69034;49.444;7.758;2023-08-06T15:20:47;24.60;48.10
79571;DHT22;69034;49.444;7.758;2023-08-06T15:24:48;24.60;48.40
79571;DHT22;69034;49.444;7.758;2023-08-06T15:28:49;24.70;48.40
79571;DHT22;69034;49.444;7.758;2023-08-06T15:32:50;25.20;47.70
79571;DHT22;69034;49.444;7.758;2023-08-06T15:36:51;25.50;47.30
79571;DHT22;69034;49.444;7.758;2023-08-06T15:40:56;25.90;46.70
79571;DHT22;69034;49.444;7.758;2023-08-06T15:44:57;25.80;47.30
79571;DHT22;69034;49.444;7.758;2023-08-06T15:48:57;25.70;47.30
79571;DHT22;69034;49.444;7.758;2023-08-06T15:52:58;25.60;47.30
79571;DHT22;69034;49.444;7.758;2023-08-06T15:56:58;25.40;47.50
79571;DHT22;69034;49.444;7.758;2023-08-06T16:00:59;25.40;47.40
79571;DHT22;69034;49.444;7.758;2023-08-06T16:05:00;25.30;47.40
79571;DHT22;69034;49.444;7.758;2023-08-06T16:09:00;25.00;47.90
79571;DHT22;69034;49.444;7.758;2023-08-06T16:13:01;24.90;47.70
79571;DHT22;69034;49.444;7.758;2023-08-06T16:17:03;24.70;48.10
79571;DHT22;69034;49.444;7.758;2023-08-06T16:21:07;24.40;48.70
79571;DHT22;69034;49.444;7.758;2023-08-06T16:25:08;24.10;49.20
79571;DHT22;69034;49.444;7.758;2023-08-06T16:29:12;23.60;49.80
79571;DHT22;69034;49.444;7.758;2023-08-06T16:33:16;23.30;50.10
79571;DHT22;69034;49.444;7.758;2023-08-06T16:37:17;23.10;50.50
79571;DHT22;69034;49.444;7.758;2023-08-06T16:41:18;22.90;50.80
79571;DHT22;69034;49.444;7.758;2023-08-06T16:45:19;22.70;51.10
79571;DHT22;69034;49.444;7.758;2023-08-06T16:49:20;22.60;51.40
79571;DHT22;69034;49.444;7.758;2023-08-06T16:53:22;22.30;51.90
79571;DHT22;69034;49.444;7.758;2023-08-06T16:57:23;22.10;52.40
79571;DHT22;69034;49.444;7.758;2023-08-06T17:01:24;22.00;52.60
79571;DHT22;69034;49.444;7.758;2023-08-06T17:05:24;21.90;53.10
79571;DHT22;69034;49.444;7.758;2023-08-06T17:09:25;22.20;53.90
79571;DHT22;69034;49.444;7.758;2023-08-06T17:13:26;22.10;53.70
79571;DHT22;69034;49.444;7.758;2023-08-06T17:17:26;22.00;53.80
79571;DHT22;69034;49.444;7.758;2023-08-06T17:21:28;21.90;53.60
79571;DHT22;69034;49.444;7.758;2023-08-06T17:25:29;21.90;53.60
79571;DHT22;69034;49.444;7.758;2023-08-06T17:29:30;21.80;53.80
79571;DHT22;69034;49.444;7.758;2023-08-06T17:33:30;21.60;54.00
79571;DHT22;69034;49.444;7.758;2023-08-06T17:37:31;21.50;54.10
79571;DHT22;69034;49.444;7.758;2023-08-06T17:41:32;21.40;54.40
79571;DHT22;69034;49.444;7.758;2023-08-06T17:45:33;21.20;54.80
79571;DHT22;69034;49.444;7.758;2023-08-06T17:49:34;21.00;55.00
79571;DHT22;69034;49.444;7.758;2023-08-06T17:53:34;20.80;55.40
79571;DHT22;69034;49.444;7.758;2023-08-06T17:57:37;20.80;55.60
79571;DHT22;69034;49.444;7.758;2023-08-06T18:01:38;20.80;55.80
79571;DHT22;69034;49.444;7.758;2023-08-06T18:05:39;20.80;55.90
79571;DHT22;69034;49.444;7.758;2023-08-06T18:09:40;20.60;55.90
79571;DHT22;69034;49.444;7.758;2023-08-06T18:13:40;20.40;56.10
79571;DHT22;69034;49.444;7.758;2023-08-06T18:17:41;20.30;56.30
79571;DHT22;69034;49.444;7.758;2023-08-06T18:21:42;20.20;56.40
79571;DHT22;69034;49.444;7.758;2023-08-06T18:25:43;20.10;56.50
79571;DHT22;69034;49.444;7.758;2023-08-06T18:29:44;20.00;56.80
79571;DHT22;69034;49.444;7.758;2023-08-06T18:33:45;19.90;56.90
79571;DHT22;69034;49.444;7.758;2023-08-06T18:37:46;19.80;57.10
79571;DHT22;69034;49.444;7.758;2023-08-06T18:41:46;19.60;57.40
79571;DHT22;69034;49.444;7.758;2023-08-06T18:45:47;19.60;57.70
79571;DHT22;69034;49.444;7.758;2023-08-06T18:49:48;19.60;57.60
79571;DHT22;69034;49.444;7.758;2023-08-06T18:53:48;19.50;57.60
79571;DHT22;69034;49.444;7.758;2023-08-06T18:57:49;19.30;57.80
79571;DHT22;69034;49.444;7.758;2023-08-06T19:01:50;19.20;57.70
79571;DHT22;69034;49.444;7.758;2023-08-06T19:05:50;19.10;57.70
79571;DHT22;69034;49.444;7.758;2023-08-06T19:09:51;19.00;58.00
79571;DHT22;69034;49.444;7.758;2023-08-06T19:13:52;18.90;58.00
79571;DHT22;69034;49.444;7.758;2023-08-06T19:17:52;18.90;58.20
79571;DHT22;69034;49.444;7.758;2023-08-06T19:21:53;18.70;58.60
79571;DHT22;69034;49.444;7.758;2023-08-06T19:25:53;18.60;58.90
79571;DHT22;69034;49.444;7.758;2023-08-06T19:29:54;18.40;59.30
79571;DHT22;69034;49.444;7.758;2023-08-06T19:33:55;18.20;59.60
79571;DHT22;69034;49.444;7.758;2023-08-06T19:37:56;18.20;60.30
79571;DHT22;69034;49.444;7.758;2023-08-06T19:41:56;18.20;60.30
79571;DHT22;69034;49.444;7.758;2023-08-06T19:45:59;18.10;60.70
79571;DHT22;69034;49.444;7.758;2023-08-06T19:50:01;17.90;61.00
79571;DHT22;69034;49.444;7.758;2023-08-06T19:54:01;17.70;61.30
79571;DHT22;69034;49.444;7.758;2023-08-06T19:58:02;17.60;61.50
79571;DHT22;69034;49.444;7.758;2023-08-06T20:02:03;17.60;61.80
79571;DHT22;69034;49.444;7.758;2023-08-06T20:06:04;17.60;61.70
79571;DHT22;69034;49.444;7.758;2023-08-06T20:10:05;17.50;62.00
79571;DHT22;69034;49.444;7.758;2023-08-06T20:14:06;17.40;62.20
79571;DHT22;69034;49.444;7.758;2023-08-06T20:18:07;17.30;62.30
79571;DHT22;69034;49.444;7.758;2023-08-06T20:22:09;17.20;62.60
79571;DHT22;69034;49.444;7.758;2023-08-06T20:26:10;17.20;62.60
79571;DHT22;69034;49.444;7.758;2023-08-06T20:30:11;17.10;62.80
79571;DHT22;69034;49.444;7.758;2023-08-06T20:34:12;17.00;63.00
79571;DHT22;69034;49.444;7.758;2023-08-06T20:38:13;17.00;63.10
79571;DHT22;69034;49.444;7.758;2023-08-06T20:42:16;16.90;63.10
79571;DHT22;69034;49.444;7.758;2023-08-06T20:46:16;16.90;63.30
79571;DHT22;69034;49.444;7.758;2023-08-06T20:50:17;16.90;63.30
79571;DHT22;69034;49.444;7.758;2023-08-06T20:54:18;16.80;63.50
79571;DHT22;69034;49.444;7.758;2023-08-06T20:58:19;16.80;63.50
79571;DHT22;69034;49.444;7.758;2023-08-06T21:02:19;16.70;63.70
79571;DHT22;69034;49.444;7.758;2023-08-06T21:06:22;16.70;63.90
79571;DHT22;69034;49.444;7.758;2023-08-06T21:10:22;16.60;64.20
79571;DHT22;69034;49.444;7.758;2023-08-06T21:14:23;16.60;64.30
79571;DHT22;69034;49.444;7.758;2023-08-06T21:18:27;16.60;64.20
79571;DHT22;69034;49.444;7.758;2023-08-06T21:22:29;16.60;64.40
79571;DHT22;69034;49.444;7.758;2023-08-06T21:26:30;16.70;64.50
79571;DHT22;69034;49.444;7.758;2023-08-06T21:30:31;16.80;64.30
79571;DHT22;69034;49.444;7.758;2023-08-06T21:34:31;16.90;64.30
79571;DHT22;69034;49.444;7.758;2023-08-06T21:38:34;16.90;64.30
79571;DHT22;69034;49.444;7.758;2023-08-06T21:42:34;16.90;64.30
79571;DHT22;69034;49.444;7.758;2023-08-06T21:46:35;16.90;64.30
79571;DHT22;69034;49.444;7.758;2023-08-06T21:50:36;16.90;64.30
79571;DHT22;69034;49.444;7.758;2023-08-06T21:54:36;16.90;64.20
79571;DHT22;69034;49.444;7.758;2023-08-06T21:58:39;16.90;64.20
79571;DHT22;69034;49.444;7.758;2023-08-06T22:02:40;16.90;64.20
79571;DHT22;69034;49.444;7.758;2023-08-06T22:06:40;16.90;64.20
79571;DHT22;69034;49.444;7.758;2023-08-06T22:10:41;16.90;64.10
79571;DHT22;69034;49.444;7.758;2023-08-06T22:14:42;16.90;64.10
79571;DHT22;69034;49.444;7.758;2023-08-06T22:18:42;16.90;64.10
79571;DHT22;69034;49.444;7.758;2023-08-06T22:22:43;16.80;64.00
79571;DHT22;69034;49.444;7.758;2023-08-06T22:26:44;16.80;63.90
79571;DHT22;69034;49.444;7.758;2023-08-06T22:30:44;16.80;63.80
79571;DHT22;69034;49.444;7.758;2023-08-06T22:34:45;16.70;63.90
79571;DHT22;69034;49.444;7.758;2023-08-06T22:38:45;16.60;64.00
79571;DHT22;69034;49.444;7.758;2023-08-06T22:42:46;16.50;64.20
79571;DHT22;69034;49.444;7.758;2023-08-06T22:46:47;16.40;64.30
79571;DHT22;69034;49.444;7.758;2023-08-06T22:50:47;16.30;64.30
79571;DHT22;69034;49.444;7.758;2023-08-06T22:54:48;16.20;64.50
79571;DHT22;69034;49.444;7.758;2023-08-06T22:58:48;16.20;64.50
79571;DHT22;69034;49.444;7.758;2023-08-06T23:02:50;16.20;64.60
79571;DHT22;69034;49.444;7.758;2023-08-06T23:06:51;16.10;64.60
79571;DHT22;69034;49.444;7.758;2023-08-06T23:10:51;16.10;64.60
79571;DHT22;69034;49.444;7.758;2023-08-06T23:14:52;16.10;64.80
79571;DHT22;69034;49.444;7.758;2023-08-06T23:18:53;16.00;65.00
79571;DHT22;69034;49.444;7.758;2023-08-06T23:22:53;16.00;64.90
79571;DHT22;69034;49.444;7.758;2023-08-06T23:26:54;16.00;65.00
79571;DHT22;69034;49.444;7.758;2023-08-06T23:30:55;16.00;64.90
79571;DHT22;69034;49.444;7.758;2023-08-06T23:34:55;15.90;64.80
79571;DHT22;69034;49.444;7.758;2023-08-06T23:39:05;15.90;64.80
79571;DHT22;69034;49.444;7.758;2023-08-06T23:43:11;15.90;64.80
79571;DHT22;69034;49.444;7.758;2023-08-06T23:47:12;15.90;64.90
79571;DHT22;69034;49.444;7.758;2023-08-06T23:51:13;15.80;64.80
79571;DHT22;69034;49.444;7.758;2023-08-06T23:55:13;15.80;65.10
79571;DHT22;69034;49.444;7.758;2023-08-06T23:59:14;15.70;65.10
